createdAt,value
2023-05-03T00:02:10.493Z,0.70
2023-05-03T00:04:37.519Z,0.90
2023-05-03T00:07:06.699Z,0.90
2023-05-03T00:09:36.340Z,1.15
2023-05-03T00:12:03.596Z,1.80
2023-05-03T00:14:30.417Z,1.30
2023-05-03T00:16:57.243Z,1.25
2023-05-03T00:19:31.347Z,0.95
2023-05-03T00:21:58.900Z,0.90
2023-05-03T00:24:25.746Z,0.80
2023-05-03T00:26:52.486Z,0.80
2023-05-03T00:29:21.219Z,0.85
2023-05-03T00:31:47.968Z,0.90
2023-05-03T00:34:14.779Z,0.82
2023-05-03T00:36:41.560Z,0.70
2023-05-03T00:39:08.428Z,0.82
2023-05-03T00:41:36.007Z,0.80
2023-05-03T00:44:02.884Z,0.70
2023-05-03T00:46:29.789Z,0.80
2023-05-03T00:48:56.979Z,0.90
2023-05-03T00:51:24.924Z,0.73
2023-05-03T00:53:51.937Z,0.90
2023-05-03T00:56:25.838Z,0.98
2023-05-03T00:58:52.845Z,1.08
2023-05-03T01:01:19.863Z,1.17
2023-05-03T01:03:47.504Z,0.90
2023-05-03T01:06:34.674Z,1.10
2023-05-03T01:09:10.267Z,0.90
2023-05-03T01:11:59.762Z,0.95
2023-05-03T01:15:08.582Z,1.25
2023-05-03T01:17:39.800Z,1.30
2023-05-03T01:20:10.472Z,1.08
2023-05-03T01:22:48.090Z,1.00
2023-05-03T01:25:16.248Z,0.80
2023-05-03T01:27:43.374Z,0.80
2023-05-03T01:30:12.225Z,0.90
2023-05-03T01:32:50.186Z,1.02
2023-05-03T01:35:37.804Z,0.95
2023-05-03T01:38:05.443Z,0.85
2023-05-03T01:40:36.181Z,1.10
2023-05-03T01:43:04.203Z,0.90
2023-05-03T01:45:31.149Z,0.75
2023-05-03T01:47:57.958Z,0.80
2023-05-03T01:50:24.799Z,1.00
2023-05-03T01:52:53.283Z,1.23
2023-05-03T01:55:20.004Z,0.90
2023-05-03T01:57:46.757Z,0.90
2023-05-03T02:00:14.178Z,0.90
2023-05-03T02:02:40.947Z,0.90
2023-05-03T02:05:08.050Z,0.90
2023-05-03T02:07:34.812Z,1.27
2023-05-03T02:10:03.256Z,1.00
2023-05-03T02:12:30.193Z,1.00
2023-05-03T02:14:57.019Z,1.17
2023-05-03T02:17:26.622Z,1.20
2023-05-03T02:19:53.477Z,0.85
2023-05-03T02:22:20.405Z,0.88
2023-05-03T02:24:47.401Z,0.88
2023-05-03T02:27:14.251Z,0.88
2023-05-03T02:29:41.040Z,0.90
2023-05-03T02:32:07.781Z,0.90
2023-05-03T02:34:34.558Z,0.80
2023-05-03T02:37:01.685Z,1.00
2023-05-03T02:39:29.256Z,0.90
2023-05-03T02:41:55.990Z,1.55
2023-05-03T02:44:22.770Z,0.82
2023-05-03T02:46:49.667Z,1.40
2023-05-03T02:49:16.431Z,1.10
2023-05-03T02:51:43.241Z,1.10
2023-05-03T02:54:10.020Z,1.20
2023-05-03T02:56:36.853Z,1.10
2023-05-03T02:59:03.785Z,1.08
2023-05-03T03:01:30.734Z,1.40
2023-05-03T03:03:57.512Z,1.38
2023-05-03T03:06:24.580Z,1.13
2023-05-03T03:08:51.448Z,1.00
2023-05-03T03:11:18.739Z,1.05
2023-05-03T03:13:45.619Z,1.38
2023-05-03T03:16:13.649Z,0.93
2023-05-03T03:18:40.673Z,0.80
2023-05-03T03:21:07.495Z,1.00
2023-05-03T03:23:34.247Z,1.00
2023-05-03T03:26:01.345Z,1.17
2023-05-03T03:28:28.174Z,1.20
2023-05-03T03:30:54.921Z,1.08
2023-05-03T03:33:24.406Z,1.02
2023-05-03T03:35:51.800Z,0.80
2023-05-03T03:38:18.508Z,0.90
2023-05-03T03:40:45.317Z,1.10
2023-05-03T03:43:12.193Z,1.10
2023-05-03T03:45:39.020Z,1.65
2023-05-03T03:48:06.276Z,1.00
2023-05-03T03:50:34.235Z,1.48
2023-05-03T03:53:01.102Z,1.52
2023-05-03T03:55:27.835Z,1.48
2023-05-03T03:57:54.617Z,1.40
2023-05-03T04:00:21.550Z,1.48
2023-05-03T04:02:48.979Z,1.13
2023-05-03T04:05:16.110Z,0.98
2023-05-03T04:07:42.838Z,1.17
2023-05-03T04:10:09.859Z,1.25
2023-05-03T04:12:36.937Z,1.15
2023-05-03T04:15:04.317Z,0.90
2023-05-03T04:17:32.153Z,1.10
2023-05-03T04:19:58.976Z,1.20
2023-05-03T04:22:25.722Z,0.73
2023-05-03T04:24:54.715Z,1.10
2023-05-03T04:27:21.551Z,0.75
2023-05-03T04:29:49.122Z,1.30
2023-05-03T04:32:17.021Z,0.93
2023-05-03T04:34:44.313Z,1.15
2023-05-03T04:37:11.117Z,1.00
2023-05-03T04:39:37.897Z,1.20
2023-05-03T04:42:05.210Z,0.98
2023-05-03T04:44:32.679Z,0.70
2023-05-03T04:46:59.852Z,0.75
2023-05-03T04:49:26.664Z,0.93
2023-05-03T04:51:54.455Z,0.70
2023-05-03T04:54:21.896Z,0.77
2023-05-03T04:56:48.749Z,0.80
2023-05-03T04:59:15.945Z,0.73
2023-05-03T05:01:42.817Z,0.82
2023-05-03T05:04:09.744Z,0.73
2023-05-03T05:06:36.584Z,0.80
2023-05-03T05:09:04.584Z,0.80
2023-05-03T05:11:31.876Z,0.80
2023-05-03T05:13:58.627Z,0.80
2023-05-03T05:16:25.559Z,0.57
2023-05-03T05:18:52.312Z,0.70
2023-05-03T05:21:19.050Z,0.70
2023-05-03T05:23:45.775Z,0.80
2023-05-03T05:26:12.703Z,0.75
2023-05-03T05:28:39.423Z,0.70
2023-05-03T05:31:06.229Z,0.73
2023-05-03T05:33:33.189Z,0.70
2023-05-03T05:36:00.497Z,0.52
2023-05-03T05:38:27.878Z,0.73
2023-05-03T05:40:54.657Z,0.60
2023-05-03T05:43:21.459Z,0.70
2023-05-03T05:45:48.257Z,0.70
2023-05-03T05:48:15.327Z,0.70
2023-05-03T05:50:42.213Z,0.80
2023-05-03T05:53:09.767Z,0.85
2023-05-03T05:55:36.576Z,1.00
2023-05-03T05:58:03.455Z,0.60
2023-05-03T06:00:30.648Z,0.70
2023-05-03T06:02:57.488Z,1.00
2023-05-03T06:05:24.466Z,1.40
2023-05-03T06:07:51.276Z,1.00
2023-05-03T06:10:18.127Z,0.98
2023-05-03T06:12:44.942Z,1.10
2023-05-03T06:15:11.791Z,1.23
2023-05-03T06:17:38.989Z,1.35
2023-05-03T06:20:06.758Z,1.40
2023-05-03T06:22:33.761Z,1.70
2023-05-03T06:25:00.666Z,2.10
2023-05-03T06:27:27.463Z,1.77
2023-05-03T06:29:54.277Z,1.98
2023-05-03T06:32:21.946Z,2.60
2023-05-03T06:34:49.948Z,3.40
2023-05-03T06:37:17.546Z,3.20
2023-05-03T06:39:44.721Z,2.50
2023-05-03T06:42:11.954Z,2.55
2023-05-03T06:44:39.104Z,2.75
2023-05-03T06:47:06.437Z,2.05
2023-05-03T06:49:33.820Z,2.80
2023-05-03T06:52:00.967Z,2.50
2023-05-03T06:54:28.157Z,3.00
2023-05-03T06:56:55.374Z,2.72
2023-05-03T06:59:22.588Z,2.97
2023-05-03T07:01:50.846Z,3.22
2023-05-03T07:04:18.102Z,2.92
2023-05-03T07:06:55.987Z,3.70
2023-05-03T07:09:35.358Z,3.25
2023-05-03T07:12:09.192Z,2.75
2023-05-03T07:14:36.356Z,4.38
2023-05-03T07:17:03.610Z,2.80
2023-05-03T07:19:31.022Z,3.47
2023-05-03T07:21:58.171Z,3.70
2023-05-03T07:24:26.155Z,3.67
2023-05-03T07:26:53.821Z,3.60
2023-05-03T07:29:21.149Z,3.53
2023-05-03T07:31:48.387Z,2.97
2023-05-03T07:34:15.893Z,3.90
2023-05-03T07:36:43.226Z,2.70
2023-05-03T07:39:09.988Z,3.80
2023-05-03T07:41:37.046Z,3.60
2023-05-03T07:44:04.283Z,2.90
2023-05-03T07:46:35.032Z,2.92
2023-05-03T07:49:02.960Z,2.92
2023-05-03T07:51:31.796Z,3.50
2023-05-03T07:53:59.240Z,3.00
2023-05-03T07:56:28.256Z,2.95
2023-05-03T07:59:07.471Z,3.00
2023-05-03T08:01:36.988Z,3.55
2023-05-03T08:04:04.804Z,3.10
2023-05-03T08:06:32.688Z,3.22
2023-05-03T08:09:00.735Z,3.22
2023-05-03T08:11:29.240Z,3.53
2023-05-03T08:13:56.792Z,3.80
2023-05-03T08:16:24.650Z,2.67
2023-05-03T08:18:52.036Z,2.70
2023-05-03T08:21:19.357Z,3.42
2023-05-03T08:23:46.637Z,3.65
2023-05-03T08:26:14.718Z,3.63
2023-05-03T08:28:42.388Z,3.65
2023-05-03T08:31:09.902Z,3.33
2023-05-03T08:33:37.749Z,3.83
2023-05-03T08:36:05.138Z,3.60
2023-05-03T08:38:32.639Z,2.95
2023-05-03T08:41:03.930Z,2.78
2023-05-03T08:43:32.332Z,3.17
2023-05-03T08:45:59.581Z,3.15
2023-05-03T08:48:28.192Z,2.60
2023-05-03T08:50:57.872Z,3.83
2023-05-03T08:53:25.088Z,3.47
2023-05-03T08:55:52.335Z,4.07
2023-05-03T08:58:19.560Z,4.72
2023-05-03T09:00:46.853Z,3.65
2023-05-03T09:03:14.463Z,3.70
2023-05-03T09:05:44.265Z,4.40
2023-05-03T09:08:17.116Z,4.18
2023-05-03T09:10:44.483Z,4.30
2023-05-03T09:13:12.152Z,3.28
2023-05-03T09:15:39.630Z,2.90
2023-05-03T09:18:11.406Z,3.28
2023-05-03T09:20:39.865Z,4.10
2023-05-03T09:23:10.672Z,3.08
2023-05-03T09:25:41.758Z,2.97
2023-05-03T09:28:09.283Z,2.40
2023-05-03T09:30:36.905Z,3.22
2023-05-03T09:33:04.677Z,3.72
2023-05-03T09:35:32.591Z,3.50
2023-05-03T09:38:00.389Z,3.83
2023-05-03T09:40:28.070Z,3.78
2023-05-03T09:43:18.098Z,3.35
2023-05-03T09:45:46.924Z,4.13
2023-05-03T09:48:14.528Z,3.90
2023-05-03T09:50:41.899Z,4.07
2023-05-03T09:53:09.153Z,4.25
2023-05-03T09:55:40.250Z,4.20
2023-05-03T09:58:08.439Z,4.00
2023-05-03T10:00:39.133Z,4.30
2023-05-03T10:03:10.462Z,3.20
2023-05-03T10:05:44.193Z,3.70
2023-05-03T10:08:13.321Z,2.67
2023-05-03T10:10:42.637Z,3.20
2023-05-03T10:13:11.973Z,3.45
2023-05-03T10:15:42.959Z,3.10
2023-05-03T10:18:11.363Z,3.20
2023-05-03T10:20:44.672Z,3.97
2023-05-03T10:23:13.607Z,4.60
2023-05-03T10:25:41.897Z,4.55
2023-05-03T10:28:10.103Z,4.10
2023-05-03T10:30:40.909Z,3.28
2023-05-03T10:33:10.951Z,3.20
2023-05-03T10:35:40.339Z,3.85
2023-05-03T10:38:17.955Z,4.65
2023-05-03T10:40:45.355Z,3.90
2023-05-03T10:43:33.464Z,4.05
2023-05-03T10:46:01.844Z,2.90
2023-05-03T10:48:29.710Z,2.92
2023-05-03T10:50:57.905Z,2.58
2023-05-03T10:53:37.312Z,2.70
2023-05-03T10:56:08.113Z,4.60
2023-05-03T10:58:39.679Z,5.03
2023-05-03T11:01:07.803Z,4.63
2023-05-03T11:03:37.712Z,2.90
2023-05-03T11:06:05.520Z,3.45
2023-05-03T11:08:37.718Z,4.00
2023-05-03T11:11:09.578Z,3.20
2023-05-03T11:13:37.391Z,3.63
2023-05-03T11:16:05.957Z,3.95
2023-05-03T11:18:33.523Z,3.97
2023-05-03T11:21:00.795Z,4.18
2023-05-03T11:23:31.551Z,4.50
2023-05-03T11:25:58.729Z,4.00
2023-05-03T11:28:26.888Z,4.45
2023-05-03T11:30:54.912Z,3.45
2023-05-03T11:33:22.255Z,4.05
2023-05-03T11:35:49.568Z,3.88
2023-05-03T11:38:16.831Z,3.38
2023-05-03T11:40:44.095Z,3.78
2023-05-03T11:43:11.491Z,3.05
2023-05-03T11:45:42.020Z,4.85
2023-05-03T11:48:09.505Z,2.97
2023-05-03T11:50:51.307Z,3.00
2023-05-03T11:53:19.720Z,3.95
2023-05-03T11:55:48.471Z,3.80
2023-05-03T11:58:20.527Z,4.18
2023-05-03T12:00:48.654Z,3.75
2023-05-03T12:03:26.875Z,2.58
2023-05-03T12:05:57.338Z,2.67
2023-05-03T12:08:36.359Z,2.70
2023-05-03T12:11:07.253Z,2.08
2023-05-03T12:13:39.936Z,3.35
2023-05-03T12:16:14.288Z,2.88
2023-05-03T12:19:09.326Z,3.15
2023-05-03T12:21:59.291Z,3.45
2023-05-03T12:24:34.642Z,3.38
2023-05-03T12:27:03.199Z,3.75
2023-05-03T12:29:35.381Z,3.47
2023-05-03T12:32:04.153Z,3.30
2023-05-03T12:34:35.466Z,2.22
2023-05-03T12:37:06.065Z,2.10
2023-05-03T12:39:34.197Z,2.55
2023-05-03T12:44:35.007Z,3.28
2023-05-03T12:47:03.261Z,2.80
2023-05-03T12:49:31.361Z,2.17
2023-05-03T12:54:33.621Z,2.30
2023-05-03T12:57:08.520Z,2.38
2023-05-03T12:59:42.562Z,2.40
2023-05-03T13:07:14.944Z,1.77
2023-05-03T13:12:30.712Z,2.55
2023-05-03T13:14:58.121Z,2.80
2023-05-03T13:17:26.207Z,3.03
2023-05-03T13:19:53.605Z,2.83
2023-05-03T13:22:20.863Z,2.70
2023-05-03T13:24:48.318Z,2.63
2023-05-03T13:27:16.413Z,3.08
2023-05-03T13:29:44.100Z,2.70
2023-05-03T13:32:12.823Z,2.38
2023-05-03T13:34:40.122Z,1.90
2023-05-03T13:37:07.400Z,1.48
2023-05-03T13:39:34.606Z,1.80
2023-05-03T13:42:02.409Z,1.55
2023-05-03T13:44:29.757Z,1.83
2023-05-03T13:46:57.876Z,1.65
2023-05-03T13:49:25.584Z,2.03
2023-05-03T13:51:52.903Z,2.38
2023-05-03T13:54:20.090Z,1.83
2023-05-03T13:56:47.371Z,1.90
2023-05-03T13:59:15.108Z,2.20
2023-05-03T14:01:43.379Z,1.80
2023-05-03T14:04:10.908Z,1.50
2023-05-03T14:06:41.237Z,1.80
2023-05-03T14:09:09.407Z,2.20
2023-05-03T14:11:37.971Z,1.60
2023-05-03T14:14:05.465Z,1.60
2023-05-03T14:19:03.854Z,1.83
2023-05-03T14:21:31.866Z,2.58
2023-05-03T14:23:59.254Z,2.47
2023-05-03T14:26:26.964Z,1.50
2023-05-03T14:28:54.215Z,1.70
2023-05-03T14:31:21.662Z,1.90
2023-05-03T14:33:48.913Z,2.20
2023-05-03T14:36:16.172Z,1.60
2023-05-03T14:38:43.383Z,1.90
2023-05-03T14:41:10.874Z,1.60
2023-05-03T14:43:38.325Z,1.60
2023-05-03T14:46:05.630Z,1.40
2023-05-03T14:48:32.872Z,2.17
2023-05-03T14:51:00.129Z,1.80
2023-05-03T14:53:27.401Z,2.08
2023-05-03T14:55:54.715Z,2.33
2023-05-03T14:58:21.969Z,2.20
2023-05-03T15:00:49.365Z,1.60
2023-05-03T15:03:16.676Z,1.38
2023-05-03T15:05:47.570Z,1.67
2023-05-03T15:08:15.918Z,1.40
2023-05-03T15:10:44.741Z,2.00
2023-05-03T15:13:13.330Z,1.80
2023-05-03T15:15:43.374Z,1.23
2023-05-03T15:18:11.212Z,1.20
2023-05-03T15:20:39.088Z,1.08
2023-05-03T15:23:06.520Z,1.73
2023-05-03T15:25:33.818Z,2.65
2023-05-03T15:28:04.199Z,2.22
2023-05-03T15:30:32.324Z,1.70
2023-05-03T15:33:00.005Z,1.65
2023-05-03T15:35:27.855Z,1.42
2023-05-03T15:37:55.073Z,1.73
2023-05-03T15:40:25.172Z,1.67
2023-05-03T15:42:54.149Z,1.60
2023-05-03T15:45:23.393Z,1.73
2023-05-03T15:47:50.949Z,1.73
2023-05-03T15:50:18.229Z,1.75
2023-05-03T15:52:48.847Z,1.75
2023-05-03T15:55:17.414Z,1.80
2023-05-03T15:57:45.560Z,1.67
2023-05-03T16:00:13.313Z,1.60
2023-05-03T16:02:41.075Z,1.15
2023-05-03T16:05:08.687Z,1.20
2023-05-03T16:07:36.014Z,1.83
2023-05-03T16:10:03.441Z,1.60
2023-05-03T16:12:31.003Z,1.48
2023-05-03T16:14:58.298Z,1.48
2023-05-03T16:17:25.784Z,1.75
2023-05-03T16:19:53.123Z,1.67
2023-05-03T16:22:20.378Z,1.95
2023-05-03T16:24:47.647Z,2.30
2023-05-03T16:27:14.868Z,1.30
2023-05-03T16:29:42.133Z,1.50
2023-05-03T16:32:10.965Z,1.60
2023-05-03T16:34:38.614Z,1.13
2023-05-03T16:37:06.061Z,1.27
2023-05-03T16:39:33.286Z,1.48
2023-05-03T16:42:01.049Z,1.02
2023-05-03T16:44:28.329Z,1.10
2023-05-03T16:46:55.585Z,1.75
2023-05-03T16:49:22.971Z,1.95
2023-05-03T16:51:50.202Z,1.42
2023-05-03T16:54:17.479Z,1.33
2023-05-03T16:56:45.164Z,1.33
2023-05-03T16:59:12.453Z,1.65
2023-05-03T17:01:39.691Z,1.60
2023-05-03T17:04:07.037Z,1.20
2023-05-03T17:06:34.495Z,1.10
2023-05-03T17:09:01.933Z,1.30
2023-05-03T17:11:29.818Z,1.48
2023-05-03T17:13:57.804Z,1.45
2023-05-03T17:16:26.386Z,1.60
2023-05-03T17:18:53.789Z,1.40
2023-05-03T17:21:21.346Z,1.73
2023-05-03T17:23:48.594Z,1.60
2023-05-03T17:26:16.351Z,1.90
2023-05-03T17:28:44.284Z,2.50
2023-05-03T17:31:12.643Z,2.22
2023-05-03T17:33:40.070Z,2.15
2023-05-03T17:36:07.563Z,1.90
2023-05-03T17:38:35.995Z,2.20
2023-05-03T17:41:10.364Z,2.50
2023-05-03T17:43:38.024Z,2.60
2023-05-03T17:46:10.688Z,2.47
2023-05-03T17:48:47.388Z,1.88
2023-05-03T17:51:14.849Z,1.63
2023-05-03T17:53:43.060Z,2.00
2023-05-03T17:56:16.980Z,1.80
2023-05-03T17:58:44.780Z,1.70
2023-05-03T18:01:13.662Z,2.28
2023-05-03T18:03:44.266Z,3.10
2023-05-03T18:06:12.327Z,3.10
2023-05-03T18:08:39.883Z,3.53
2023-05-03T18:11:07.330Z,3.33
2023-05-03T18:13:34.570Z,3.55
2023-05-03T18:16:01.897Z,2.75
2023-05-03T18:18:29.454Z,2.30
2023-05-03T18:21:00.436Z,1.70
2023-05-03T18:23:27.831Z,1.52
2023-05-03T18:25:55.113Z,1.23
2023-05-03T18:28:22.824Z,0.82
2023-05-03T18:30:52.725Z,1.02
2023-05-03T18:33:20.235Z,0.80
2023-05-03T18:35:51.031Z,0.93
2023-05-03T18:38:19.201Z,0.63
2023-05-03T18:40:47.067Z,0.70
2023-05-03T18:43:14.619Z,0.60
2023-05-03T18:45:41.918Z,0.60
2023-05-03T18:48:09.244Z,0.52
2023-05-03T18:50:39.229Z,0.70
2023-05-03T18:53:06.973Z,0.60
2023-05-03T18:55:34.227Z,0.60
2023-05-03T18:58:01.516Z,0.50
2023-05-03T19:00:28.788Z,0.60
2023-05-03T19:02:56.033Z,0.60
2023-05-03T19:05:23.322Z,0.50
2023-05-03T19:07:50.665Z,0.70
2023-05-03T19:10:19.929Z,0.50
2023-05-03T19:12:47.232Z,0.50
2023-05-03T19:15:14.439Z,0.70
2023-05-03T19:17:42.273Z,0.70
2023-05-03T19:20:10.428Z,0.73
2023-05-03T19:22:37.977Z,0.60
2023-05-03T19:25:05.567Z,0.60
2023-05-03T19:27:33.047Z,0.60
2023-05-03T19:30:00.301Z,0.70
2023-05-03T19:32:27.665Z,0.50
2023-05-03T19:34:54.930Z,0.65
2023-05-03T19:37:22.163Z,0.88
2023-05-03T19:39:49.433Z,0.70
2023-05-03T19:42:17.246Z,0.60
2023-05-03T19:44:44.441Z,0.60
2023-05-03T19:47:11.685Z,0.50
2023-05-03T19:49:39.250Z,0.55
2023-05-03T19:52:07.084Z,0.55
2023-05-03T19:54:34.375Z,0.50
2023-05-03T19:57:06.245Z,0.55
2023-05-03T19:59:34.135Z,0.50
2023-05-03T20:02:01.925Z,0.65
2023-05-03T20:04:29.456Z,0.50
2023-05-03T20:06:57.362Z,0.60
2023-05-03T20:09:24.728Z,0.70
2023-05-03T20:11:56.416Z,0.85
2023-05-03T20:14:23.598Z,1.30
2023-05-03T20:16:50.826Z,0.90
2023-05-03T20:19:18.501Z,0.77
2023-05-03T20:21:45.735Z,0.82
2023-05-03T20:24:12.938Z,0.85
2023-05-03T20:26:41.132Z,0.60
2023-05-03T20:29:08.339Z,0.95
2023-05-03T20:31:35.720Z,0.77
2023-05-03T20:34:02.951Z,1.00
2023-05-03T20:36:31.448Z,0.90
2023-05-03T20:38:58.814Z,0.70
2023-05-03T20:41:26.846Z,1.00
2023-05-03T20:43:54.990Z,0.80
2023-05-03T20:46:22.345Z,0.70
2023-05-03T20:48:49.704Z,0.80
2023-05-03T20:51:17.016Z,0.75
2023-05-03T20:53:44.345Z,0.50
2023-05-03T20:56:11.571Z,0.45
2023-05-03T20:58:38.816Z,0.60
2023-05-03T21:01:07.765Z,0.70
2023-05-03T21:03:35.471Z,0.50
2023-05-03T21:06:02.814Z,0.60
2023-05-03T21:08:30.043Z,0.50
2023-05-03T21:10:57.247Z,0.70
2023-05-03T21:13:24.628Z,0.60
2023-05-03T21:15:51.891Z,0.40
2023-05-03T21:18:19.794Z,0.50
2023-05-03T21:20:47.247Z,0.50
2023-05-03T21:23:14.521Z,0.70
2023-05-03T21:25:41.722Z,0.77
2023-05-03T21:28:08.959Z,0.88
2023-05-03T21:30:36.196Z,0.73
2023-05-03T21:33:03.512Z,0.88
2023-05-03T21:35:30.837Z,0.77
2023-05-03T21:37:58.203Z,0.80
2023-05-03T21:40:25.699Z,0.70
2023-05-03T21:42:53.073Z,0.65
2023-05-03T21:45:20.354Z,0.85
2023-05-03T21:47:47.571Z,0.70
2023-05-03T21:50:14.860Z,0.70
2023-05-03T21:52:43.022Z,0.73
2023-05-03T21:55:10.390Z,0.70
2023-05-03T21:57:37.966Z,0.80
2023-05-03T22:00:05.779Z,0.60
2023-05-03T22:02:33.299Z,0.80
2023-05-03T22:05:00.610Z,0.60
2023-05-03T22:07:27.877Z,0.80
2023-05-03T22:09:55.086Z,0.63
2023-05-03T22:12:24.579Z,0.52
2023-05-03T22:14:52.849Z,0.60
2023-05-03T22:17:20.294Z,0.70
2023-05-03T22:19:47.531Z,0.70
2023-05-03T22:22:14.857Z,0.90
2023-05-03T22:24:42.131Z,0.77
2023-05-03T22:27:09.347Z,0.60
2023-05-03T22:29:36.638Z,0.55
2023-05-03T22:32:04.026Z,0.63
2023-05-03T22:34:31.355Z,0.60
2023-05-03T22:36:58.684Z,0.70
2023-05-03T22:39:26.771Z,0.60
2023-05-03T22:41:53.997Z,0.60
2023-05-03T22:44:21.220Z,0.50
2023-05-03T22:46:48.398Z,0.50
2023-05-03T22:49:15.630Z,0.77
2023-05-03T22:51:42.898Z,0.80
2023-05-03T22:54:10.108Z,0.77
2023-05-03T22:56:37.652Z,0.80
2023-05-03T22:59:04.968Z,0.73
2023-05-03T23:01:32.240Z,0.93
2023-05-03T23:03:59.653Z,0.80
2023-05-03T23:06:27.191Z,0.80
2023-05-03T23:08:54.388Z,0.85
2023-05-03T23:11:21.609Z,0.80
2023-05-03T23:13:48.893Z,0.80
2023-05-03T23:16:16.793Z,0.90
2023-05-03T23:18:44.048Z,0.68
2023-05-03T23:21:11.313Z,1.00
2023-05-03T23:23:39.105Z,0.90
2023-05-03T23:26:06.675Z,0.93
2023-05-03T23:28:34.513Z,0.93
2023-05-03T23:31:02.118Z,0.90
2023-05-03T23:33:29.869Z,0.80
2023-05-03T23:35:57.265Z,0.90
2023-05-03T23:38:24.495Z,0.75
2023-05-03T23:40:51.706Z,0.88
2023-05-03T23:43:18.924Z,0.90
2023-05-03T23:45:46.202Z,0.75
2023-05-03T23:48:13.498Z,0.80
2023-05-03T23:50:40.915Z,1.00
2023-05-03T23:53:08.128Z,0.90
2023-05-03T23:55:35.635Z,0.77
2023-05-03T23:58:02.953Z,0.60
